Time;durP1;ratioP1;P1;durP2;ratioP2;P2;SDS_P1;SDS_P2;PMS_P1;PMS_P2;Temp;Humidity;BMP_temperature;BMP_pressure;BME280_temperature;BME280_humidity;BME280_pressure;Samples;Min_cycle;Max_cycle;Signal;HPM_P1;HPM_P2
2021/07/22 00:02:14;;;;;;;18.13;10.60;;;;;;;17.24;90.11;100188.29;126340;1099;104325;-77
2021/07/22 00:04:44;;;;;;;21.03;10.70;;;;;;;17.25;90.13;100182.12;126334;1099;104245;-77
2021/07/22 00:07:15;;;;;;;17.63;9.27;;;;;;;17.27;90.17;100183.90;126309;1099;105460;-77
2021/07/22 00:09:45;;;;;;;20.80;12.50;;;;;;;17.28;90.54;100178.60;126334;1099;104133;-77
2021/07/22 00:12:16;;;;;;;20.17;10.80;;;;;;;17.28;90.09;100183.91;126373;1099;104287;-78
2021/07/22 00:14:47;;;;;;;20.87;11.93;;;;;;;17.29;90.23;100183.00;126302;1099;104161;-77
2021/07/22 00:17:17;;;;;;;20.13;11.53;;;;;;;17.31;89.89;100181.27;126234;1099;104827;-77
2021/07/22 00:19:48;;;;;;;18.83;10.40;;;;;;;17.32;89.90;100179.48;126361;1099;104156;-77
2021/07/22 00:22:20;;;;;;;20.57;10.33;;;;;;;17.32;90.12;100187.44;126342;1099;104312;-76
2021/07/22 00:24:51;;;;;;;16.80;9.60;;;;;;;17.33;90.66;100186.57;126287;1099;104161;-77
2021/07/22 00:27:22;;;;;;;16.00;8.80;;;;;;;17.34;90.63;100188.32;126212;1099;104143;-77
2021/07/22 00:29:53;;;;;;;17.17;8.60;;;;;;;17.34;90.60;100177.71;126276;1099;104137;-76
2021/07/22 00:32:26;;;;;;;18.97;9.90;;;;;;;17.35;90.29;100184.80;126365;1099;104146;-77
2021/07/22 00:34:57;;;;;;;;;;;;;;;17.35;90.20;100177.72;126397;1097;104165;-77
2021/07/22 00:37:27;;;;;;;19.57;9.33;;;;;;;17.34;90.40;100175.97;126302;1099;104143;-77
2021/07/22 00:39:58;;;;;;;21.40;10.97;;;;;;;17.35;90.58;100174.19;126360;1099;104146;-76
2021/07/22 00:42:29;;;;;;;21.73;10.90;;;;;;;17.36;90.65;100184.80;126309;1099;105279;-77
2021/07/22 00:45:00;;;;;;;21.80;11.70;;;;;;;17.38;90.47;100179.50;126304;1099;104131;-77
2021/07/22 00:47:31;;;;;;;19.43;11.93;;;;;;;17.39;90.15;100182.16;126212;1099;104230;-78
2021/07/22 00:50:04;;;;;;;21.07;12.03;;;;;;;17.41;90.68;100172.43;126349;1099;104143;-77
2021/07/22 00:52:34;;;;;;;23.90;13.38;;;;;;;17.42;90.45;100183.91;126330;1098;104136;-77
2021/07/22 00:55:06;;;;;;;23.03;13.10;;;;;;;17.43;90.39;100183.05;126288;1099;104240;-77
2021/07/22 00:57:37;;;;;;;22.77;13.50;;;;;;;17.45;90.87;100194.53;126315;1098;104149;-78
2021/07/22 01:00:10;;;;;;;23.37;12.70;;;;;;;17.44;90.38;100198.09;126265;1099;104178;-77
2021/07/22 01:02:41;;;;;;;24.03;13.47;;;;;;;17.47;90.55;100195.45;126350;1099;104176;-76
2021/07/22 01:05:13;;;;;;;21.53;12.67;;;;;;;17.47;90.27;100194.53;126240;1099;104288;-76
2021/07/22 01:07:47;;;;;;;24.07;13.00;;;;;;;17.49;90.60;100195.45;126261;1099;104143;-77
2021/07/22 01:10:17;;;;;;;26.85;15.35;;;;;;;17.50;90.26;100197.20;126346;1099;104179;-77
2021/07/22 01:12:48;;;;;;;26.07;14.27;;;;;;;17.53;90.77;100198.11;126263;1099;104175;-76
2021/07/22 01:15:19;;;;;;;22.17;12.87;;;;;;;17.52;90.45;100185.72;126346;1097;105289;-76
2021/07/22 01:17:51;;;;;;;25.80;13.20;;;;;;;17.54;90.56;100199.86;126229;1099;104299;-77
2021/07/22 01:20:24;;;;;;;28.53;15.17;;;;;;;17.55;90.58;100201.64;126320;1098;104251;-77
2021/07/22 01:22:57;;;;;;;24.37;13.63;;;;;;;17.56;90.30;100202.52;126320;1098;104169;-77
2021/07/22 01:25:31;;;;;;;23.63;14.13;;;;;;;17.56;90.63;100202.52;126258;1099;104152;-77
2021/07/22 01:28:02;;;;;;;23.37;13.07;;;;;;;17.57;91.02;100207.83;126339;1099;104159;-76
2021/07/22 01:30:34;;;;;;;22.23;12.83;;;;;;;17.56;90.39;100207.83;126355;1099;104272;-77
2021/07/22 01:33:05;;;;;;;25.15;12.90;;;;;;;17.57;90.66;100215.79;126305;1099;104173;-76
2021/07/22 01:35:38;;;;;;;24.63;14.63;;;;;;;17.57;91.07;100207.83;126369;1099;104155;-76
2021/07/22 01:38:09;;;;;;;21.57;12.27;;;;;;;17.58;91.39;100212.27;126307;1099;104222;-76
2021/07/22 01:40:40;;;;;;;21.90;11.37;;;;;;;17.58;91.26;100222.00;126332;1099;104216;-75
2021/07/22 01:43:10;;;;;;;19.53;10.30;;;;;;;17.56;91.37;100223.74;126310;1099;104213;-76
2021/07/22 01:45:50;;;;;;;21.97;12.23;;;;;;;17.55;90.81;100222.87;126257;1099;104165;-77
2021/07/22 01:48:22;;;;;;;18.37;10.10;;;;;;;17.56;90.75;100229.95;126312;1099;104159;-77
2021/07/22 01:50:54;;;;;;;23.43;11.43;;;;;;;17.56;91.34;100227.30;126328;1099;104236;-77
2021/07/22 01:53:26;;;;;;;19.87;9.77;;;;;;;17.55;90.89;100222.87;126354;1099;104133;-76
2021/07/22 01:55:57;;;;;;;19.30;10.50;;;;;;;17.55;90.90;100230.83;126358;1099;104249;-77
2021/07/22 01:58:28;;;;;;;23.10;12.13;;;;;;;17.58;91.04;100233.48;126281;1099;104315;-76
2021/07/22 02:01:02;;;;;;;20.77;11.43;;;;;;;17.59;91.35;100235.27;126328;1099;104283;-76
2021/07/22 02:03:33;;;;;;;18.30;10.03;;;;;;;17.58;91.18;100236.14;126317;1098;104246;-76
2021/07/22 02:06:11;;;;;;;24.77;12.70;;;;;;;17.61;91.24;100237.92;126271;1099;104563;-77
2021/07/22 02:08:45;;;;;;;23.57;11.23;;;;;;;17.60;91.19;100231.71;126290;1099;104179;-76
2021/07/22 02:11:16;;;;;;;22.80;11.90;;;;;;;17.63;90.81;100235.28;126296;1099;107025;-76
2021/07/22 02:13:47;;;;;;;19.87;12.10;;;;;;;17.67;90.66;100234.38;126352;1099;104265;-76
2021/07/22 02:16:18;;;;;;;19.73;11.93;;;;;;;17.69;90.77;100235.30;126344;1099;104165;-77
2021/07/22 02:18:50;;;;;;;20.47;12.50;;;;;;;17.69;91.07;100238.83;126350;1099;104149;-76
2021/07/22 02:21:26;;;;;;;23.43;11.87;;;;;;;17.69;91.21;100244.13;126315;1099;118918;-77
2021/07/22 02:23:57;;;;;;;23.30;12.33;;;;;;;17.70;91.66;100245.00;126283;1098;104315;-77
2021/07/22 02:26:47;;;;;;;23.90;12.50;;;;;;;17.67;91.29;100242.34;126319;1099;104152;-76
2021/07/22 02:29:18;;;;;;;24.80;12.87;;;;;;;17.64;91.21;100248.55;126289;1099;104143;-77
2021/07/22 02:31:49;;;;;;;19.10;11.00;;;;;;;17.60;91.07;100244.98;126337;1099;104191;-76
2021/07/22 02:34:20;;;;;;;22.73;11.93;;;;;;;17.60;91.20;100249.41;126343;1099;104191;-76
2021/07/22 02:36:51;;;;;;;28.10;12.80;;;;;;;17.59;91.07;100248.53;126331;1099;104145;-78
2021/07/22 02:39:31;;;;;;;23.77;11.67;;;;;;;17.59;91.00;100252.93;126286;1099;104213;-78
2021/07/22 02:42:04;;;;;;;18.57;10.20;;;;;;;17.58;91.00;100254.71;126321;1099;111833;-77
2021/07/22 02:44:39;;;;;;;20.03;11.33;;;;;;;17.58;91.01;100269.75;126361;1099;104268;-77
2021/07/22 02:47:26;;;;;;;23.20;12.13;;;;;;;17.57;91.19;100258.23;126361;1099;104214;-77
2021/07/22 02:49:57;;;;;;;21.07;10.87;;;;;;;17.57;91.12;100268.84;126258;1096;104141;-77
2021/07/22 02:52:28;;;;;;;22.73;11.00;;;;;;;17.58;91.76;100267.10;126322;1099;104185;-77
2021/07/22 02:54:59;;;;;;;23.60;11.53;;;;;;;17.56;91.27;100275.05;126263;1099;104659;-76
2021/07/22 02:57:31;;;;;;;23.50;11.60;;;;;;;17.58;91.45;100278.59;126333;1098;104148;-77
2021/07/22 03:00:01;;;;;;;21.43;11.43;;;;;;;17.57;91.01;100276.80;126297;1099;104159;-77
2021/07/22 03:02:33;;;;;;;21.63;11.17;;;;;;;17.57;91.26;100279.45;126301;1099;107031;-77
2021/07/22 03:05:06;;;;;;;25.53;12.07;;;;;;;17.59;91.45;100272.41;126339;1099;104216;-77
2021/07/22 03:07:37;;;;;;;22.83;11.30;;;;;;;17.61;91.42;100278.59;126266;1099;104242;-76
2021/07/22 03:10:09;;;;;;;23.40;10.57;;;;;;;17.61;91.11;100285.69;126335;1099;104146;-77
2021/07/22 03:12:40;;;;;;;25.73;11.73;;;;;;;17.64;91.38;100274.17;126290;1099;104229;-77
2021/07/22 03:15:14;;;;;;;26.67;12.93;;;;;;;17.65;90.84;100270.65;126312;1099;104153;-77
2021/07/22 03:17:51;;;;;;;20.73;11.37;;;;;;;17.66;91.24;100275.09;126280;1099;104206;-76
2021/07/22 03:20:22;;;;;;;20.73;11.00;;;;;;;17.67;91.33;100274.18;126301;1099;104152;-77
2021/07/22 03:22:56;;;;;;;26.13;11.73;;;;;;;17.68;91.31;100287.45;126340;1099;104634;-77
2021/07/22 03:25:32;;;;;;;25.80;12.13;;;;;;;17.67;91.27;100290.10;126308;1099;104165;-77
2021/07/22 03:28:13;;;;;;;21.53;10.80;;;;;;;17.68;90.81;100291.89;126324;1098;104195;-77
2021/07/22 03:31:06;;;;;;;20.80;9.33;;;;;;;17.69;90.82;100304.28;126293;1099;104137;-75
2021/07/22 03:33:43;;;;;;;20.77;10.47;;;;;;;17.66;90.67;100305.15;126299;1099;104169;-77
2021/07/22 03:36:25;;;;;;;20.93;10.77;;;;;;;17.65;90.58;100298.05;126359;1099;104248;-77
2021/07/22 03:39:11;;;;;;;23.23;10.73;;;;;;;17.65;90.21;100302.48;126368;1099;104139;-75
2021/07/22 03:42:01;;;;;;;23.13;10.43;;;;;;;17.66;90.88;100296.31;126268;1099;104364;-77
2021/07/22 03:44:40;;;;;;;22.50;10.73;;;;;;;17.66;90.42;100299.84;126321;1099;104195;-77
2021/07/22 03:47:16;;;;;;;25.73;10.77;;;;;;;17.66;90.64;100298.97;126351;1099;104210;-76
2021/07/22 03:49:47;;;;;;;21.30;11.03;;;;;;;17.67;90.74;100296.31;126311;1099;104195;-77
2021/07/22 03:52:33;;;;;;;21.70;11.93;;;;;;;17.69;90.44;100299.85;126253;1099;104387;-77
2021/07/22 03:55:04;;;;;;;21.17;10.57;;;;;;;17.70;90.44;100303.38;126294;1099;104300;-77
2021/07/22 03:57:37;;;;;;;24.43;11.77;;;;;;;17.71;91.13;100299.86;126330;1099;104236;-77
2021/07/22 04:00:10;;;;;;;19.53;11.33;;;;;;;17.72;90.47;100306.95;126349;1099;104208;-77
2021/07/22 04:03:04;;;;;;;23.03;11.63;;;;;;;17.74;90.51;100305.17;126309;1097;104172;-77
2021/07/22 04:05:38;;;;;;;18.90;9.17;;;;;;;17.77;90.30;100305.19;126329;1099;104589;-77
2021/07/22 04:08:09;;;;;;;19.57;9.10;;;;;;;17.77;90.63;100310.49;126291;1099;104156;-77
2021/07/22 04:10:51;;;;;;;18.00;8.80;;;;;;;17.76;90.71;100321.98;126337;1099;104140;-77
2021/07/22 04:13:35;;;;;;;21.07;10.17;;;;;;;17.73;91.05;100325.53;126281;1099;104224;-77
2021/07/22 04:16:26;;;;;;;27.80;11.17;;;;;;;17.72;90.74;100330.83;126356;1098;104700;-77
2021/07/22 04:19:15;;;;;;;20.50;9.83;;;;;;;17.70;90.75;100328.17;126326;1099;104234;-76
2021/07/22 04:22:06;;;;;;;23.40;10.60;;;;;;;17.71;91.33;100337.01;126227;1098;104137;-76
2021/07/22 04:24:46;;;;;;;20.23;9.37;;;;;;;17.69;90.79;100344.96;126357;1099;104151;-75
2021/07/22 04:27:35;;;;;;;21.13;11.67;;;;;;;17.70;91.25;100343.18;126292;1099;104159;-76
2021/07/22 04:30:12;;;;;;;17.53;8.90;;;;;;;17.68;90.48;100343.17;126300;1099;104140;-75
2021/07/22 04:32:59;;;;;;;;;;;;;;;17.69;90.54;100342.30;126321;1099;104159;-75
2021/07/22 04:35:54;;;;;;;22.13;10.00;;;;;;;17.69;90.62;100338.78;126326;1099;105286;-75
2021/07/22 04:38:38;;;;;;;17.00;8.50;;;;;;;17.73;90.62;100344.11;126228;1099;104162;-75
2021/07/22 04:41:25;;;;;;;19.83;9.80;;;;;;;17.81;90.63;100345.87;126336;1099;104166;-76
2021/07/22 04:44:02;;;;;;;17.53;8.23;;;;;;;17.86;89.71;100345.03;126264;1099;104182;-76
2021/07/22 04:46:45;;;;;;;22.60;9.90;;;;;;;17.96;90.63;100341.53;126343;1099;104146;-76
2021/07/22 04:49:35;;;;;;;21.43;9.97;;;;;;;18.08;90.39;100345.13;126301;1099;104156;-75
2021/07/22 04:52:27;;;;;;;21.03;9.77;;;;;;;18.18;90.12;100341.59;126269;1099;104156;-77
2021/07/22 04:55:06;;;;;;;18.43;7.27;;;;;;;18.27;89.30;100340.73;126324;1099;104152;-76
2021/07/22 04:57:37;;;;;;;19.57;10.10;;;;;;;18.37;89.39;100346.94;126309;1099;104150;-77
2021/07/22 05:00:10;;;;;;;18.43;8.83;;;;;;;18.48;90.17;100340.77;126326;1098;104238;-75
2021/07/22 05:02:49;;;;;;;17.77;8.60;;;;;;;18.58;89.89;100336.33;126235;1099;104245;-76
2021/07/22 05:05:20;;;;;;;18.13;7.97;;;;;;;18.64;89.91;100341.64;126282;1099;104207;-76
2021/07/22 05:08:06;;;;;;;17.70;7.70;;;;;;;18.63;89.26;100336.33;126288;1099;104169;-76
2021/07/22 05:10:59;;;;;;;12.97;6.73;;;;;;;18.65;89.47;100338.11;126322;1099;104242;-77
2021/07/22 05:13:43;;;;;;;18.03;7.77;;;;;;;18.65;89.31;100343.43;126318;1098;104257;-75
2021/07/22 05:16:26;;;;;;;21.20;8.10;;;;;;;18.61;89.01;100341.64;126312;1097;104318;-77
2021/07/22 05:19:06;;;;;;;22.73;9.13;;;;;;;18.59;88.83;100343.42;126232;1099;104238;-76
2021/07/22 05:21:53;;;;;;;20.53;8.33;;;;;;;18.57;88.84;100342.52;126220;1099;104245;-77
2021/07/22 05:24:42;;;;;;;17.60;8.00;;;;;;;18.59;88.76;100340.77;126244;1099;104248;-76
2021/07/22 05:27:26;;;;;;;20.73;8.43;;;;;;;18.63;89.02;100339.86;126264;1099;104672;-76
2021/07/22 05:30:17;;;;;;;23.13;8.07;;;;;;;18.65;88.57;100347.84;126248;1096;101787;-78
2021/07/22 05:32:59;;;;;;;17.00;8.73;;;;;;;18.69;89.10;100352.28;126237;1099;104243;-77
2021/07/22 05:35:46;;;;;;;18.70;7.80;;;;;;;18.75;88.47;100349.62;125215;1099;114351;-77
2021/07/22 05:38:38;;;;;;;16.00;7.30;;;;;;;18.81;87.87;100348.74;125284;1099;104173;-76
2021/07/22 05:41:11;;;;;;;16.20;7.43;;;;;;;18.84;87.73;100348.74;125190;1099;104245;-76
2021/07/22 05:43:46;;;;;;;26.85;7.95;;;;;;;18.91;87.75;100344.33;125151;1102;104326;-76
2021/07/22 05:46:21;;;;;;;18.57;8.37;;;;;;;18.98;88.05;100344.33;125226;1099;104178;-78
2021/07/22 05:48:52;;;;;;;17.83;7.90;;;;;;;19.06;88.40;100346.97;125229;1099;104728;-76
2021/07/22 05:51:26;;;;;;;19.07;6.67;;;;;;;19.13;87.49;100343.39;125150;1099;104169;-76
2021/07/22 05:54:00;;;;;;;19.23;8.00;;;;;;;19.20;88.56;100344.29;125423;1102;105548;-76
2021/07/22 05:56:32;;;;;;;23.27;9.88;;;;;;;19.29;88.15;100341.61;126105;1099;104187;-77
2021/07/22 05:59:05;;;;;;;16.87;8.08;;;;;;;19.37;87.89;100344.25;126082;1096;104140;-75
2021/07/22 06:01:38;;;;;;;18.93;7.60;;;;;;;19.45;87.79;100341.56;126163;1099;104214;-77
2021/07/22 06:04:13;;;;;;;17.30;7.60;;;;;;;19.52;87.36;100351.28;126216;1099;104190;-76
2021/07/22 06:06:49;;;;;;;18.30;7.37;;;;;;;19.58;87.31;100343.28;126212;1099;104205;-77
2021/07/22 06:09:22;;;;;;;19.13;7.13;;;;;;;19.61;85.77;100348.59;126144;1099;104137;-77
2021/07/22 06:11:57;;;;;;;20.37;9.80;;;;;;;19.69;87.33;100345.90;126286;1097;104291;-77
2021/07/22 06:14:28;;;;;;;;;;;;;;;19.75;85.75;100341.42;126235;1099;104206;-76
2021/07/22 06:17:02;;;;;;;19.23;8.10;;;;;;;19.79;86.59;100336.12;126206;1099;104224;-78
2021/07/22 06:19:38;;;;;;;21.00;7.63;;;;;;;19.84;85.24;100342.33;126174;1099;104157;-76
2021/07/22 06:22:11;;;;;;;20.40;7.90;;;;;;;19.88;84.86;100338.73;126057;1099;104149;-77
2021/07/22 06:24:46;;;;;;;18.13;7.60;;;;;;;19.95;86.27;100345.81;126123;1099;105541;-77
2021/07/22 06:27:28;;;;;;;19.67;7.63;;;;;;;20.03;86.30;100335.99;126157;1099;104239;-79
2021/07/22 06:30:07;;;;;;;21.13;7.37;;;;;;;20.04;83.98;100332.45;126103;1099;104252;-77
2021/07/22 06:32:40;;;;;;;16.33;6.30;;;;;;;20.07;82.98;100335.09;126096;1099;104168;-77
2021/07/22 06:35:13;;;;;;;;;;;;;;;20.13;84.23;100330.61;126057;1099;104261;-75
2021/07/22 06:37:49;;;;;;;13.50;5.93;;;;;;;20.20;82.76;100335.02;126112;1099;104715;-76
2021/07/22 06:40:36;;;;;;;18.97;6.93;;;;;;;20.31;83.59;100338.48;126220;1099;104139;-77
2021/07/22 06:43:11;;;;;;;20.17;7.00;;;;;;;20.38;83.41;100337.56;126195;1099;104131;-76
2021/07/22 06:45:46;;;;;;;22.13;7.67;;;;;;;20.50;83.01;100335.69;126171;1099;104295;-77
2021/07/22 06:48:18;;;;;;;18.47;7.13;;;;;;;20.60;83.22;100337.37;126189;1099;104296;-76
2021/07/22 06:50:53;;;;;;;14.30;7.37;;;;;;;20.73;83.70;100338.21;126197;1099;104657;-75
2021/07/22 06:53:26;;;;;;;14.37;6.73;;;;;;;20.82;81.92;100339.00;126104;1099;104200;-77
2021/07/22 06:56:00;;;;;;;15.77;7.20;;;;;;;20.89;83.25;100333.61;126165;1099;104169;-76
2021/07/22 06:58:46;;;;;;;15.80;6.70;;;;;;;20.97;81.61;100342.41;126165;1097;104238;-77
2021/07/22 07:01:19;;;;;;;16.97;6.87;;;;;;;21.13;81.85;100343.14;126093;1099;104325;-76
2021/07/22 07:03:51;;;;;;;17.30;6.57;;;;;;;21.25;82.26;100350.15;126105;1099;104143;-76
2021/07/22 07:06:25;;;;;;;16.70;6.37;;;;;;;21.36;81.42;100345.56;126193;1099;104248;-77
2021/07/22 07:08:57;;;;;;;19.10;6.90;;;;;;;21.45;80.47;100342.80;126110;1099;104177;-76
2021/07/22 07:11:32;;;;;;;18.93;6.23;;;;;;;21.56;80.91;100348.05;126151;1097;104274;-76
2021/07/22 07:14:04;;;;;;;17.37;6.90;;;;;;;21.70;80.01;100351.42;126191;1099;104194;-77
2021/07/22 07:16:41;;;;;;;14.93;6.22;;;;;;;21.82;78.75;100344.18;126035;1099;104265;-76
2021/07/22 07:19:14;;;;;;;16.90;6.13;;;;;;;21.95;79.06;100347.56;126237;1099;104152;-77
2021/07/22 07:21:47;;;;;;;14.20;6.27;;;;;;;22.08;79.14;100344.70;126235;1099;104224;-76
2021/07/22 07:24:22;;;;;;;16.15;6.95;;;;;;;22.20;78.91;100345.42;126272;1099;104136;-78
2021/07/22 07:26:57;;;;;;;12.23;5.97;;;;;;;22.36;77.72;100351.45;126138;1099;104229;-79
2021/07/22 07:29:31;;;;;;;16.53;6.87;;;;;;;22.46;75.92;100342.39;126217;1099;104152;-76
2021/07/22 07:32:04;;;;;;;14.13;6.37;;;;;;;22.63;75.92;100346.59;126065;1099;104201;-76
2021/07/22 07:34:37;;;;;;;17.03;6.17;;;;;;;22.73;74.84;100358.89;126157;1099;104143;-77
2021/07/22 07:42:32;;;;;;;13.70;5.73;;;;;;;23.17;75.29;100346.57;125414;1099;104293;-78
2021/07/22 07:45:09;;;;;;;17.93;5.73;;;;;;;23.33;72.50;100341.80;126188;1099;104246;-78
2021/07/22 07:47:42;;;;;;;14.40;5.70;;;;;;;23.46;73.96;100340.62;126245;1099;104150;-77
2021/07/22 07:50:16;;;;;;;12.73;5.47;;;;;;;23.63;72.87;100345.64;126252;1099;104171;-76
2021/07/22 07:52:49;;;;;;;14.90;6.30;;;;;;;23.75;73.43;100346.29;126293;1099;104268;-76
2021/07/22 07:55:24;;;;;;;13.45;5.58;;;;;;;23.93;69.77;100356.64;126190;1099;104152;-76
2021/07/22 07:57:58;;;;;;;14.93;5.47;;;;;;;24.03;69.77;100344.82;126112;1099;104219;-75
2021/07/22 08:00:32;;;;;;;12.37;5.50;;;;;;;24.16;70.68;100348.09;126189;1099;104149;-76
2021/07/22 08:03:05;;;;;;;14.95;5.78;;;;;;;24.28;69.87;100359.45;126094;1099;104270;-76
2021/07/22 08:05:43;;;;;;;12.47;5.80;;;;;;;24.34;69.93;100348.58;125258;1099;104197;-75
2021/07/22 08:08:14;;;;;;;13.87;5.50;;;;;;;24.38;68.70;100361.88;126042;1099;104293;-76
2021/07/22 08:10:58;;;;;;;13.60;6.33;;;;;;;24.43;69.53;100350.17;126128;1099;104242;-77
2021/07/22 08:13:31;;;;;;;11.27;5.60;;;;;;;24.62;68.69;100354.22;125363;1099;105393;-76
2021/07/22 08:16:03;;;;;;;12.53;5.37;;;;;;;24.66;66.47;100365.75;126137;1099;104174;-78
2021/07/22 08:18:38;;;;;;;16.37;6.23;;;;;;;24.62;66.49;100354.22;126052;1099;104286;-76
2021/07/22 08:21:12;;;;;;;13.17;5.93;;;;;;;24.66;66.93;100358.57;126161;1099;104277;-75
2021/07/22 08:23:49;;;;;;;13.67;5.80;;;;;;;24.75;67.18;100357.47;125354;1099;104319;-75
2021/07/22 08:26:19;;;;;;;;;;;;;;;24.82;61.02;100350.14;126112;1098;104297;-76
2021/07/22 08:28:55;;;;;;;13.67;5.67;;;;;;;24.86;65.83;100358.07;126012;1098;104251;-75
2021/07/22 08:31:27;;;;;;;11.60;5.60;;;;;;;24.87;65.72;100356.25;126100;1099;104310;-78
2021/07/22 08:34:03;;;;;;;9.23;4.77;;;;;;;24.99;64.97;100347.89;126071;1099;104514;-76
2021/07/22 08:39:40;;;;;;;9.30;5.07;;;;;;;24.93;62.89;100369.52;126143;1099;104264;-76
2021/07/22 08:42:13;;;;;;;9.13;5.30;;;;;;;24.86;62.64;100365.25;126275;1098;104137;-78
2021/07/22 08:44:44;;;;;;;;;;;;;;;24.91;62.48;100366.00;126267;1099;104598;-77
2021/07/22 08:47:17;;;;;;;11.30;6.10;;;;;;;24.99;62.01;100369.36;126246;1099;104136;-76
2021/07/22 08:49:49;;;;;;;13.23;5.90;;;;;;;25.06;62.67;100362.05;126105;1099;113110;-77
2021/07/22 08:52:38;;;;;;;10.30;5.57;;;;;;;25.11;62.70;100363.67;126014;1098;104185;-78
2021/07/22 08:55:11;;;;;;;19.10;6.27;;;;;;;25.16;59.45;100359.99;125905;1099;104136;-77
2021/07/22 08:57:43;;;;;;;12.27;5.43;;;;;;;25.30;62.04;100371.27;126028;1099;104194;-76
2021/07/22 09:00:18;;;;;;;12.60;5.43;;;;;;;25.28;60.32;100365.03;125880;1099;104259;-77
2021/07/22 09:02:53;;;;;;;14.27;5.60;;;;;;;25.35;60.86;100380.06;125262;1099;104364;-76
2021/07/22 09:05:29;;;;;;;13.15;5.60;;;;;;;25.29;58.57;100367.70;125256;1099;104307;-77
2021/07/22 09:08:00;;;;;;;12.80;5.90;;;;;;;25.28;59.95;100367.72;125105;1102;104610;-77
2021/07/22 09:10:38;;;;;;;11.90;5.90;;;;;;;25.30;59.38;100369.45;125915;1099;106940;-76
2021/07/22 09:13:24;;;;;;;15.13;5.70;;;;;;;25.33;59.18;100373.00;126110;1099;104168;-76
2021/07/22 09:15:59;;;;;;;10.27;5.13;;;;;;;25.26;57.04;100383.00;126083;1099;104306;-77
2021/07/22 09:18:36;;;;;;;11.50;5.20;;;;;;;25.19;57.07;100362.59;125225;1099;104657;-77
2021/07/22 09:21:24;;;;;;;10.07;5.60;;;;;;;25.28;56.71;100373.99;126074;1099;104229;-77
2021/07/22 09:24:12;;;;;;;12.67;5.60;;;;;;;25.38;56.97;100381.80;126091;1098;104313;-77
2021/07/22 09:26:46;;;;;;;15.00;5.30;;;;;;;25.34;58.00;100370.27;126081;1099;104300;-78
2021/07/22 09:29:20;;;;;;;9.67;5.37;;;;;;;25.30;57.32;100369.45;125352;1102;105431;-77
2021/07/22 09:32:04;;;;;;;8.77;5.00;;;;;;;25.25;55.92;100376.73;126163;1099;104143;-77
2021/07/22 09:34:36;;;;;;;13.73;5.07;;;;;;;25.28;56.39;100365.03;126230;1099;104169;-77
2021/07/22 09:37:12;;;;;;;12.30;5.30;;;;;;;25.29;56.32;100353.38;126191;1099;104364;-77
2021/07/22 09:39:44;;;;;;;11.87;5.10;;;;;;;25.29;56.19;100366.80;126200;1099;104188;-78
2021/07/22 09:42:21;;;;;;;10.50;5.03;;;;;;;25.30;54.91;100369.45;126240;1099;104184;-77
2021/07/22 09:44:56;;;;;;;9.47;4.90;;;;;;;25.30;55.70;100358.71;126312;1099;104146;-76
2021/07/22 09:47:32;;;;;;;11.43;5.23;;;;;;;25.35;55.38;100365.77;126333;1099;104137;-75
2021/07/22 09:50:11;;;;;;;13.23;5.20;;;;;;;25.35;55.52;100371.14;126138;1099;104306;-76
2021/07/22 09:52:45;;;;;;;15.30;5.63;;;;;;;25.40;55.16;100367.41;126287;1099;104146;-75
2021/07/22 09:55:29;;;;;;;13.32;4.97;;;;;;;25.40;54.60;100372.79;126207;1099;104246;-77
2021/07/22 09:58:03;;;;;;;10.73;4.90;;;;;;;25.45;54.97;100370.84;125963;1099;104197;-76
2021/07/22 10:00:48;;;;;;;10.20;4.72;;;;;;;25.48;54.74;100373.45;126030;1099;104197;-77
2021/07/22 10:03:26;;;;;;;11.83;4.63;;;;;;;25.54;54.65;100372.41;126068;1099;104351;-76
2021/07/22 10:06:03;;;;;;;9.80;4.67;;;;;;;25.60;54.92;100371.33;126063;1099;104370;-75
2021/07/22 10:08:36;;;;;;;9.35;4.80;;;;;;;25.45;54.07;100365.47;126140;1099;104344;-77
2021/07/22 10:11:10;;;;;;;8.80;4.40;;;;;;;25.41;53.14;100362.91;125886;1099;104306;-77
2021/07/22 10:13:46;;;;;;;9.50;4.77;;;;;;;25.52;54.19;100376.05;125752;1099;104248;-76
2021/07/22 10:16:22;;;;;;;10.45;5.10;;;;;;;25.62;54.03;100375.74;125778;1099;104265;-76
2021/07/22 10:18:59;;;;;;;13.23;4.60;;;;;;;25.50;53.53;100372.53;125902;1099;104172;-77
2021/07/22 10:21:31;;;;;;;12.80;4.70;;;;;;;25.52;52.85;100368.86;125942;1099;104256;-76
2021/07/22 10:24:09;;;;;;;18.90;5.93;;;;;;;25.52;53.18;100371.55;125853;1099;104172;-77
2021/07/22 10:26:43;;;;;;;9.33;4.37;;;;;;;25.56;51.67;100364.30;125278;1099;104435;-77
2021/07/22 10:29:14;;;;;;;10.30;5.10;;;;;;;25.59;51.97;100386.58;125710;1099;104992;-75
2021/07/22 10:31:50;;;;;;;7.57;4.40;;;;;;;25.69;52.62;100362.13;125877;1099;104175;-75
2021/07/22 10:34:22;;;;;;;11.57;4.50;;;;;;;25.74;51.86;100373.62;126028;1099;104258;-75
2021/07/22 10:36:59;;;;;;;7.00;4.40;;;;;;;25.82;51.69;100372.48;126148;1099;104175;-75
2021/07/22 10:39:59;;;;;;;12.30;4.60;;;;;;;25.89;51.89;100364.23;126232;1099;104641;-75
2021/07/22 10:42:43;;;;;;;10.47;4.30;;;;;;;26.03;51.10;100375.48;126061;1099;108574;-76
2021/07/22 10:45:29;;;;;;;9.33;4.70;;;;;;;26.01;51.21;100380.91;126206;1099;104166;-76
2021/07/22 10:48:08;;;;;;;10.47;4.37;;;;;;;25.83;49.92;100376.04;126135;1099;104163;-76
2021/07/22 10:51:05;;;;;;;11.00;4.60;;;;;;;25.83;51.21;100376.91;126243;1098;104232;-76
2021/07/22 10:53:44;;;;;;;11.20;4.50;;;;;;;25.93;51.06;100368.57;126078;1099;104198;-76
2021/07/22 10:56:27;;;;;;;10.33;4.27;;;;;;;25.90;50.34;100382.10;126059;1099;104319;-77
2021/07/22 10:59:06;;;;;;;10.50;4.03;;;;;;;25.87;50.01;100377.72;126087;1099;104195;-78
2021/07/22 11:02:03;;;;;;;;;;;;;;;25.96;49.78;100371.17;126154;1099;104165;-77
2021/07/22 11:04:47;;;;;;;7.70;3.70;;;;;;;26.14;50.37;100365.27;126164;1097;104201;-78
2021/07/22 11:07:28;;;;;;;9.57;3.80;;;;;;;26.29;48.60;100371.12;126138;1099;104277;-76
2021/07/22 11:09:59;;;;;;;7.90;3.60;;;;;;;26.30;48.11;100381.83;126193;1099;104348;-79
2021/07/22 11:12:47;;;;;;;9.20;3.90;;;;;;;26.49;47.15;100378.52;126212;1098;104194;-79
2021/07/22 11:15:42;;;;;;;9.23;3.70;;;;;;;26.55;48.22;100383.71;126185;1099;104197;-80
2021/07/22 11:18:37;;;;;;;7.73;3.43;;;;;;;26.49;48.01;100374.05;126107;1099;104255;-78
2021/07/22 11:21:11;;;;;;;7.20;3.57;;;;;;;26.29;46.37;100403.39;126114;1099;104123;-78
2021/07/22 11:23:52;;;;;;;7.60;3.60;;;;;;;25.98;45.74;100402.50;126003;1099;105142;-77
2021/07/22 11:26:31;;;;;;;10.97;3.57;;;;;;;25.84;47.79;100389.43;126248;1099;104137;-77
2021/07/22 11:29:06;;;;;;;10.53;3.97;;;;;;;25.75;47.31;100378.95;126168;1099;104166;-77
2021/07/22 11:31:45;;;;;;;7.03;3.27;;;;;;;25.72;47.72;100368.29;126202;1099;104213;-77
2021/07/22 11:34:28;;;;;;;7.17;3.70;;;;;;;25.69;46.80;100376.44;126280;1099;104201;-78
2021/07/22 11:37:04;;;;;;;9.83;3.60;;;;;;;25.75;47.13;100376.27;126225;1099;104175;-78
2021/07/22 11:39:38;;;;;;;9.03;3.83;;;;;;;25.79;45.83;100372.57;126189;1099;104178;-78
2021/07/22 11:42:15;;;;;;;9.03;3.37;;;;;;;25.76;46.61;100366.41;126181;1099;104147;-78
2021/07/22 11:45:04;;;;;;;10.70;3.80;;;;;;;25.55;46.91;100379.52;126200;1099;104178;-80
2021/07/22 11:47:38;;;;;;;8.30;3.10;;;;;;;25.41;47.01;100369.16;126254;1099;104242;-78
2021/07/22 11:50:11;;;;;;;6.75;3.10;;;;;;;25.37;45.15;100382.71;126304;1099;104153;-80
2021/07/22 11:52:42;;;;;;;8.53;2.98;;;;;;;25.38;44.93;100371.92;126231;1099;104217;-78